sensor_id;sensor_type;location;lat;lon;timestamp;P1;durP1;ratioP1;P2;durP2;ratioP2
26177;SDS011;13924;47.670;10.310;2023-04-24T00:00:40;0.9;;;0.6;;
26177;SDS011;13924;47.670;10.310;2023-04-24T00:15:40;0.6;;;0.2;;
26177;SDS011;13924;47.670;10.310;2023-04-24T00:30:42;0.5;;;0.5;;
26177;SDS011;13924;47.670;10.310;2023-04-24T00:45:42;0.1;;;0.1;;
26177;SDS011;13924;47.670;10.310;2023-04-24T01:00:43;0.2;;;0.2;;
26177;SDS011;13924;47.670;10.310;2023-04-24T01:01:26;1.3;;;0.1;;
26177;SDS011;13924;47.670;10.310;2023-04-24T01:15:43;0.1;;;0.1;;
26177;SDS011;13924;47.670;10.310;2023-04-24T01:30:44;0.1;;;0.1;;
26177;SDS011;13924;47.670;10.310;2023-04-24T01:45:45;0.2;;;0.2;;
26177;SDS011;13924;47.670;10.310;2023-04-24T02:00:45;0.1;;;0.1;;
26177;SDS011;13924;47.670;10.310;2023-04-24T02:15:46;0.6;;;0.3;;
26177;SDS011;13924;47.670;10.310;2023-04-24T02:30:45;0.4;;;0.2;;
26177;SDS011;13924;47.670;10.310;2023-04-24T02:45:48;0.3;;;0.3;;
26177;SDS011;13924;47.670;10.310;2023-04-24T03:00:49;0.2;;;0.2;;
26177;SDS011;13924;47.670;10.310;2023-04-24T03:15:47;2.6;;;0.4;;
26177;SDS011;13924;47.670;10.310;2023-04-24T03:30:49;0.6;;;0.4;;
26177;SDS011;13924;47.670;10.310;2023-04-24T03:45:49;2.3;;;0.6;;
26177;SDS011;13924;47.670;10.310;2023-04-24T04:00:50;0.5;;;0.4;;
26177;SDS011;13924;47.670;10.310;2023-04-24T04:15:51;0.8;;;0.5;;
26177;SDS011;13924;47.670;10.310;2023-04-24T04:30:52;0.4;;;0.4;;
26177;SDS011;13924;47.670;10.310;2023-04-24T04:38:20;0.3;;;0.3;;
26177;SDS011;13924;47.670;10.310;2023-04-24T04:53:22;1.0;;;0.5;;
26177;SDS011;13924;47.670;10.310;2023-04-24T05:23:25;0.7;;;0.5;;
26177;SDS011;13924;47.670;10.310;2023-04-24T05:38:23;3.1;;;0.9;;
26177;SDS011;13924;47.670;10.310;2023-04-24T05:53:29;0.8;;;0.4;;
26177;SDS011;13924;47.670;10.310;2023-04-24T06:08:25;1.5;;;0.7;;
26177;SDS011;13924;47.670;10.310;2023-04-24T06:23:25;2.8;;;2.0;;
26177;SDS011;13924;47.670;10.310;2023-04-24T06:38:30;1.8;;;0.8;;
26177;SDS011;13924;47.670;10.310;2023-04-24T06:53:26;1.6;;;0.5;;
26177;SDS011;13924;47.670;10.310;2023-04-24T07:08:27;1.4;;;1.0;;
26177;SDS011;13924;47.670;10.310;2023-04-24T07:23:32;0.6;;;0.6;;
26177;SDS011;13924;47.670;10.310;2023-04-24T07:38:29;1.4;;;1.0;;
26177;SDS011;13924;47.670;10.310;2023-04-24T07:53:34;3.5;;;1.4;;
26177;SDS011;13924;47.670;10.310;2023-04-24T08:08:42;2.3;;;2.1;;
26177;SDS011;13924;47.670;10.310;2023-04-24T08:23:30;2.8;;;2.3;;
26177;SDS011;13924;47.670;10.310;2023-04-24T08:38:31;3.2;;;2.3;;
26177;SDS011;13924;47.670;10.310;2023-04-24T08:53:32;3.3;;;2.5;;
26177;SDS011;13924;47.670;10.310;2023-04-24T09:08:32;2.4;;;1.8;;
26177;SDS011;13924;47.670;10.310;2023-04-24T09:23:33;3.0;;;1.8;;
26177;SDS011;13924;47.670;10.310;2023-04-24T09:38:38;7.1;;;3.6;;
26177;SDS011;13924;47.670;10.310;2023-04-24T10:08:35;2.4;;;1.5;;
26177;SDS011;13924;47.670;10.310;2023-04-24T10:23:35;3.0;;;2.1;;
26177;SDS011;13924;47.670;10.310;2023-04-24T10:38:36;2.9;;;2.2;;
26177;SDS011;13924;47.670;10.310;2023-04-24T10:53:37;2.2;;;2.0;;
26177;SDS011;13924;47.670;10.310;2023-04-24T11:08:38;3.0;;;2.1;;
26177;SDS011;13924;47.670;10.310;2023-04-24T11:23:38;5.3;;;2.5;;
26177;SDS011;13924;47.670;10.310;2023-04-24T11:38:38;4.5;;;2.7;;
26177;SDS011;13924;47.670;10.310;2023-04-24T11:53:40;3.2;;;2.7;;
26177;SDS011;13924;47.670;10.310;2023-04-24T12:08:41;4.5;;;3.1;;
26177;SDS011;13924;47.670;10.310;2023-04-24T12:23:42;6.0;;;3.1;;
26177;SDS011;13924;47.670;10.310;2023-04-24T12:38:43;6.2;;;2.9;;
26177;SDS011;13924;47.670;10.310;2023-04-24T12:53:42;3.0;;;2.3;;
26177;SDS011;13924;47.670;10.310;2023-04-24T13:08:43;4.3;;;2.2;;
26177;SDS011;13924;47.670;10.310;2023-04-24T13:23:44;2.5;;;1.9;;
26177;SDS011;13924;47.670;10.310;2023-04-24T13:38:44;3.2;;;1.9;;
26177;SDS011;13924;47.670;10.310;2023-04-24T13:53:45;3.1;;;1.8;;
26177;SDS011;13924;47.670;10.310;2023-04-24T14:08:46;3.1;;;1.9;;
26177;SDS011;13924;47.670;10.310;2023-04-24T14:23:46;2.9;;;1.7;;
26177;SDS011;13924;47.670;10.310;2023-04-24T14:38:47;2.6;;;1.6;;
26177;SDS011;13924;47.670;10.310;2023-04-24T14:53:47;5.7;;;2.9;;
26177;SDS011;13924;47.670;10.310;2023-04-24T15:08:48;3.1;;;1.9;;
26177;SDS011;13924;47.670;10.310;2023-04-24T15:23:48;4.1;;;2.1;;
26177;SDS011;13924;47.670;10.310;2023-04-24T15:38:49;3.3;;;2.1;;
26177;SDS011;13924;47.670;10.310;2023-04-24T15:53:51;3.9;;;2.8;;
26177;SDS011;13924;47.670;10.310;2023-04-24T16:08:52;4.8;;;2.7;;
26177;SDS011;13924;47.670;10.310;2023-04-24T16:23:53;3.6;;;2.4;;
26177;SDS011;13924;47.670;10.310;2023-04-24T16:38:53;2.9;;;2.4;;
26177;SDS011;13924;47.670;10.310;2023-04-24T16:53:54;8.1;;;2.7;;
26177;SDS011;13924;47.670;10.310;2023-04-24T17:08:55;1.8;;;1.6;;
26177;SDS011;13924;47.670;10.310;2023-04-24T17:23:55;2.6;;;2.1;;
26177;SDS011;13924;47.670;10.310;2023-04-24T17:38:56;2.6;;;2.4;;
26177;SDS011;13924;47.670;10.310;2023-04-24T17:53:56;4.1;;;2.3;;
26177;SDS011;13924;47.670;10.310;2023-04-24T18:08:57;4.8;;;2.3;;
26177;SDS011;13924;47.670;10.310;2023-04-24T18:23:58;3.3;;;2.3;;
26177;SDS011;13924;47.670;10.310;2023-04-24T18:38:58;1.7;;;1.6;;
26177;SDS011;13924;47.670;10.310;2023-04-24T18:53:59;2.2;;;1.8;;
26177;SDS011;13924;47.670;10.310;2023-04-24T19:09:00;2.9;;;2.5;;
26177;SDS011;13924;47.670;10.310;2023-04-24T19:24:01;3.7;;;1.8;;
26177;SDS011;13924;47.670;10.310;2023-04-24T19:39:01;2.6;;;2.4;;
26177;SDS011;13924;47.670;10.310;2023-04-24T19:54:02;2.9;;;2.5;;
26177;SDS011;13924;47.670;10.310;2023-04-24T20:09:02;3.9;;;2.7;;
26177;SDS011;13924;47.670;10.310;2023-04-24T20:24:03;3.1;;;2.7;;
26177;SDS011;13924;47.670;10.310;2023-04-24T20:39:04;2.0;;;1.8;;
26177;SDS011;13924;47.670;10.310;2023-04-24T20:54:04;2.4;;;1.8;;
26177;SDS011;13924;47.670;10.310;2023-04-24T21:09:06;2.9;;;2.2;;
26177;SDS011;13924;47.670;10.310;2023-04-24T21:24:06;1.6;;;1.3;;
26177;SDS011;13924;47.670;10.310;2023-04-24T21:39:07;2.4;;;1.4;;
26177;SDS011;13924;47.670;10.310;2023-04-24T21:54:07;2.3;;;1.5;;
26177;SDS011;13924;47.670;10.310;2023-04-24T22:00:50;1.5;;;1.4;;
26177;SDS011;13924;47.670;10.310;2023-04-24T22:15:36;2.6;;;1.7;;
26177;SDS011;13924;47.670;10.310;2023-04-24T22:30:40;2.1;;;1.8;;
26177;SDS011;13924;47.670;10.310;2023-04-24T22:45:40;2.4;;;1.9;;
26177;SDS011;13924;47.670;10.310;2023-04-24T23:00:39;3.0;;;1.8;;
26177;SDS011;13924;47.670;10.310;2023-04-24T23:15:39;4.5;;;2.3;;
26177;SDS011;13924;47.670;10.310;2023-04-24T23:30:39;4.3;;;2.8;;
26177;SDS011;13924;47.670;10.310;2023-04-24T23:45:40;4.2;;;2.7;;
